This is the latest recevied weather packets stored in our database for station/object W0CHP-13. If no packets are shown the sender has not sent any weather packets the latest 10 day(s).
| Time | Temp. | Humidity | Pressure | Rain* | Wind** | Luminosity | Snow |
|---|---|---|---|---|---|---|---|
| 1777771398 | 16.11° C | 32% | 1010.1 hPa | 0 mm | - | 0 W/m² | - |
| 1777770796 | 16.11° C | 31% | 1009.9 hPa | 0 mm | - | 2 W/m² | - |
| 1777770198 | 16.11° C | 31% | 1009.9 hPa | 0 mm | - | 4 W/m² | - |
| 1777769596 | 16.67° C | 30% | 1010.1 hPa | 0 mm | - | 7 W/m² | - |
| 1777768998 | 16.67° C | 31% | 1010.3 hPa | 0 mm | - | 12 W/m² | - |
| 1777768397 | 16.67° C | 31% | 1010.3 hPa | 0 mm | - | 15 W/m² | - |
| 1777767799 | 16.67° C | 30% | 1010.3 hPa | 0 mm | - | 22 W/m² | - |
| 1777767197 | 17.22° C | 30% | 1010.4 hPa | 0 mm | - | 26 W/m² | - |
| 1777766595 | 17.22° C | 29% | 1010.6 hPa | 0 mm | - | 35 W/m² | - |
| 1777765997 | 17.22° C | 29% | 1010.6 hPa | 0 mm | - | 34 W/m² | - |
| 1777765395 | 17.78° C | 30% | 1010.8 hPa | 0 mm | - | 46 W/m² | - |
| 1777764797 | 17.78° C | 28% | 1010.8 hPa | 0 mm | - | 78 W/m² | - |
| 1777764195 | 17.78° C | 27% | 1010.8 hPa | 0 mm | - | 106 W/m² | - |
| 1777763597 | 17.78° C | 27% | 1011 hPa | 0 mm | - | 92 W/m² | - |
| 1777762995 | 17.78° C | 27% | 1011.1 hPa | 0 mm | - | 102 W/m² | - |
| 1777762397 | 17.78° C | 25% | 1011.1 hPa | 0 mm | - | 75 W/m² | - |
| 1777761795 | 18.33° C | 27% | 1011.3 hPa | 0 mm | - | 188 W/m² | - |
| 1777761197 | 18.33° C | 26% | 1011.3 hPa | 0 mm | - | 241 W/m² | - |
| 1777760595 | 18.33° C | 26% | 1011.5 hPa | 0 mm | - | 316 W/m² | - |
| 1777759997 | 18.33° C | 26% | 1011.5 hPa | 0 mm | - | 339 W/m² | - |
| 1777759395 | 17.78° C | 27% | 1011.5 hPa | 0 mm | - | 401 W/m² | - |
| 1777758798 | 17.78° C | 26% | 1011.6 hPa | 0 mm | - | 127 W/m² | - |
| 1777758196 | 18.33° C | 26% | 1012 hPa | 0 mm | - | 267 W/m² | - |
| 1777757598 | 18.33° C | 27% | 1012 hPa | 0 mm | - | 488 W/m² | - |
| 1777756996 | 18.33° C | 24% | 1012.3 hPa | 0 mm | - | 223 W/m² | - |
* Rain latest hour (hover to see other rain measurements)
** Current wind speed in m/s (hover to see current wind gust speed)